createdAt,value
2023-04-24T00:01:20.943Z,48.40
2023-04-24T00:11:23.034Z,49.71
2023-04-24T00:21:26.593Z,48.95
2023-04-24T00:31:28.846Z,50.33
2023-04-24T00:41:32.277Z,49.73
2023-04-24T00:51:35.658Z,49.03
2023-04-24T01:01:38.107Z,50.17
2023-04-24T01:11:41.907Z,50.31
2023-04-24T01:21:44.298Z,49.84
2023-04-24T01:31:46.756Z,48.13
2023-04-24T01:41:50.578Z,47.40
2023-04-24T01:51:54.892Z,46.69
2023-04-24T02:01:57.025Z,47.40
2023-04-24T02:11:59.132Z,46.78
2023-04-24T02:22:01.268Z,48.81
2023-04-24T02:32:03.685Z,49.40
2023-04-24T02:42:06.356Z,48.98
2023-04-24T02:52:08.580Z,50.99
2023-04-24T03:02:10.729Z,53.32
2023-04-24T03:12:12.920Z,53.56
2023-04-24T03:22:15.322Z,53.07
2023-04-24T03:32:18.198Z,52.46
2023-04-24T03:42:22.627Z,52.82
2023-04-24T03:52:28.623Z,53.43
2023-04-24T04:02:31.248Z,54.02
2023-04-24T04:12:34.217Z,53.97
2023-04-24T04:22:37.544Z,53.10
2023-04-24T04:32:42.467Z,52.55
2023-04-24T04:42:46.988Z,52.86
2023-04-24T04:52:49.922Z,51.97
2023-04-24T05:03:06.110Z,53.12
2023-04-24T05:13:19.102Z,52.08
2023-04-24T05:23:23.598Z,51.64
2023-04-24T05:33:28.645Z,51.25
2023-04-24T05:43:30.852Z,52.01
2023-04-24T05:53:33.005Z,53.55
2023-04-24T06:03:35.882Z,53.53
2023-04-24T06:13:39.673Z,55.39
2023-04-24T06:24:05.512Z,56.92
2023-04-24T06:34:07.782Z,56.58
2023-04-24T06:44:09.895Z,53.93
2023-04-24T06:54:12.033Z,55.83
2023-04-24T07:04:14.514Z,54.66
2023-04-24T07:14:17.014Z,55.40
2023-04-24T07:24:21.038Z,57.48
2023-04-24T07:34:24.424Z,57.74
2023-04-24T07:44:26.961Z,59.52
2023-04-24T07:54:29.759Z,60.62
2023-04-24T08:04:31.941Z,62.41
2023-04-24T08:14:34.081Z,56.17
2023-04-24T08:24:36.147Z,59.77
2023-04-24T08:34:38.703Z,58.29
2023-04-24T08:44:41.005Z,59.24
2023-04-24T08:54:46.398Z,59.97
2023-04-24T09:04:49.078Z,61.38
2023-04-24T09:14:51.417Z,60.53
2023-04-24T09:25:13.946Z,63.97
2023-04-24T09:35:16.743Z,64.44
2023-04-24T09:45:19.121Z,64.77
2023-04-24T09:55:21.744Z,64.14
2023-04-24T10:05:25.826Z,62.58
2023-04-24T10:15:28.361Z,69.05
2023-04-24T10:25:32.513Z,66.21
2023-04-24T10:35:42.828Z,65.93
2023-04-24T10:46:02.011Z,66.27
2023-04-24T10:56:06.656Z,63.59
2023-04-24T11:06:09.875Z,66.20
2023-04-24T11:16:24.272Z,63.70
2023-04-24T11:26:33.179Z,67.48
2023-04-24T11:36:37.056Z,68.19
2023-04-24T11:46:41.496Z,65.73
2023-04-24T11:56:48.945Z,63.27
2023-04-24T12:07:04.651Z,63.29
2023-04-24T12:17:06.836Z,63.35
2023-04-24T12:27:20.739Z,60.85
2023-04-24T12:37:27.125Z,59.63
2023-04-24T12:47:29.921Z,58.88
2023-04-24T12:57:32.103Z,56.17
2023-04-24T13:07:34.350Z,56.09
2023-04-24T13:17:36.435Z,55.10
2023-04-24T13:27:41.642Z,53.63
2023-04-24T13:37:43.730Z,51.72
2023-04-24T13:47:47.238Z,51.71
2023-04-24T13:57:49.964Z,51.17
2023-04-24T14:07:52.198Z,51.26
2023-04-24T14:17:54.394Z,49.35
2023-04-24T14:27:56.686Z,48.50
2023-04-24T14:37:58.833Z,47.95
2023-04-24T14:48:00.970Z,49.23
2023-04-24T14:58:03.428Z,48.72
2023-04-24T15:08:05.508Z,51.72
2023-04-24T15:18:09.295Z,54.87
2023-04-24T15:28:11.630Z,55.63
2023-04-24T15:38:14.349Z,56.57
2023-04-24T15:48:16.781Z,54.93
2023-04-24T15:58:21.414Z,51.55
2023-04-24T16:08:23.503Z,52.67
2023-04-24T16:18:25.662Z,50.71
2023-04-24T16:28:27.827Z,48.75
2023-04-24T16:38:29.905Z,48.79
2023-04-24T16:48:33.259Z,48.89
2023-04-24T16:58:35.790Z,49.29
2023-04-24T17:08:38.098Z,47.69
2023-04-24T17:18:40.513Z,47.90
2023-04-24T17:28:42.605Z,50.79
2023-04-24T17:38:44.729Z,49.90
2023-04-24T17:48:48.304Z,49.45
2023-04-24T17:58:52.334Z,50.78
2023-04-24T18:08:54.573Z,48.46
2023-04-24T18:18:57.692Z,48.38
2023-04-24T18:28:59.900Z,48.37
2023-04-24T18:39:02.701Z,49.03
2023-04-24T18:49:05.011Z,48.80
2023-04-24T18:59:07.267Z,50.66
2023-04-24T19:09:09.383Z,49.74
2023-04-24T19:19:11.421Z,48.57
2023-04-24T19:29:13.580Z,49.49
2023-04-24T19:39:16.064Z,48.87
2023-04-24T19:49:18.722Z,48.78
2023-04-24T19:59:20.992Z,51.31
2023-04-24T20:09:23.173Z,50.31
2023-04-24T20:19:25.287Z,49.50
2023-04-24T20:29:27.713Z,50.22
2023-04-24T20:39:29.930Z,52.22
2023-04-24T20:49:32.110Z,51.05
2023-04-24T20:59:34.790Z,49.99
2023-04-24T21:09:36.886Z,50.98
2023-04-24T21:19:38.940Z,49.29
2023-04-24T21:29:41.136Z,49.72
2023-04-24T21:39:43.341Z,50.23
2023-04-24T21:49:45.517Z,51.04
2023-04-24T21:59:47.868Z,51.41
2023-04-24T22:09:49.922Z,51.44
2023-04-24T22:19:52.189Z,52.14
2023-04-24T22:29:54.317Z,51.78
2023-04-24T22:39:56.420Z,52.81
2023-04-24T22:49:59.398Z,51.31
2023-04-24T23:00:02.923Z,53.68
2023-04-24T23:10:05.954Z,53.20
2023-04-24T23:20:12.602Z,53.92
2023-04-24T23:30:14.722Z,53.30
2023-04-24T23:40:16.959Z,53.39
2023-04-24T23:50:19.039Z,52.05
